createdAt,value
2022-08-26T00:00:10.616Z,989.45
2022-08-26T00:01:10.576Z,989.46
2022-08-26T00:02:10.609Z,989.44
2022-08-26T00:03:10.553Z,989.44
2022-08-26T00:04:10.594Z,989.46
2022-08-26T00:05:10.547Z,989.48
2022-08-26T00:06:10.516Z,989.44
2022-08-26T00:07:10.500Z,989.47
2022-08-26T00:08:10.498Z,989.52
2022-08-26T00:09:10.477Z,989.49
2022-08-26T00:10:10.488Z,989.49
2022-08-26T00:11:10.447Z,989.47
2022-08-26T00:12:12.415Z,989.50
2022-08-26T00:13:10.417Z,989.52
2022-08-26T00:14:10.407Z,989.47
2022-08-26T00:15:10.424Z,989.47
2022-08-26T00:16:10.441Z,989.50
2022-08-26T00:17:10.367Z,989.53
2022-08-26T00:18:21.795Z,989.51
2022-08-26T00:19:11.337Z,989.49
2022-08-26T00:20:10.367Z,989.54
2022-08-26T00:21:10.320Z,989.49
2022-08-26T00:22:10.307Z,989.52
2022-08-26T00:23:10.287Z,989.49
2022-08-26T00:24:10.305Z,989.53
2022-08-26T00:25:10.289Z,989.55
2022-08-26T00:26:11.080Z,989.56
2022-08-26T00:27:10.241Z,989.54
2022-08-26T00:28:10.854Z,989.52
2022-08-26T00:29:10.218Z,989.55
2022-08-26T00:30:10.232Z,989.58
2022-08-26T00:31:10.966Z,989.54
2022-08-26T00:32:10.211Z,989.55
2022-08-26T00:33:10.362Z,989.50
2022-08-26T00:34:11.326Z,989.53
2022-08-26T00:35:10.159Z,989.52
2022-08-26T00:36:14.429Z,989.51
2022-08-26T00:37:14.528Z,989.51
2022-08-26T00:38:11.097Z,989.48
2022-08-26T00:39:10.099Z,989.46
2022-08-26T00:40:10.138Z,989.44
2022-08-26T00:41:10.050Z,989.44
2022-08-26T00:42:10.049Z,989.41
2022-08-26T00:43:10.077Z,989.41
2022-08-26T00:44:10.023Z,989.42
2022-08-26T00:45:10.195Z,989.44
2022-08-26T00:46:10.019Z,989.43
2022-08-26T00:47:09.979Z,989.45
2022-08-26T00:48:09.967Z,989.42
2022-08-26T00:49:11.723Z,989.39
2022-08-26T00:50:09.969Z,989.44
2022-08-26T00:51:09.949Z,989.42
2022-08-26T00:52:09.974Z,989.44
2022-08-26T00:53:09.898Z,989.45
2022-08-26T00:54:10.694Z,989.42
2022-08-26T00:55:09.892Z,989.43
2022-08-26T00:56:09.867Z,989.40
2022-08-26T00:57:16.332Z,989.43
2022-08-26T00:58:10.837Z,989.40
2022-08-26T00:59:09.822Z,989.42
2022-08-26T01:00:09.829Z,989.41
2022-08-26T01:01:09.844Z,989.42
2022-08-26T01:02:20.817Z,989.39
2022-08-26T01:03:12.726Z,989.38
2022-08-26T01:04:09.762Z,989.38
2022-08-26T01:05:09.781Z,989.40
2022-08-26T01:06:12.541Z,989.37
2022-08-26T01:07:09.710Z,989.39
2022-08-26T01:08:09.700Z,989.38
2022-08-26T01:09:09.770Z,989.40
2022-08-26T01:10:09.771Z,989.42
2022-08-26T01:11:09.661Z,989.39
2022-08-26T01:12:09.650Z,989.42
2022-08-26T01:13:09.650Z,989.38
2022-08-26T01:14:09.628Z,989.40
2022-08-26T01:15:09.630Z,989.36
2022-08-26T01:16:09.627Z,989.35
2022-08-26T01:17:09.580Z,989.35
2022-08-26T01:18:09.579Z,989.30
2022-08-26T01:19:09.550Z,989.28
2022-08-26T01:20:09.572Z,989.31
2022-08-26T01:21:09.529Z,989.26
2022-08-26T01:22:09.522Z,989.28
2022-08-26T01:23:09.508Z,989.28
2022-08-26T01:24:10.260Z,989.29
2022-08-26T01:25:09.504Z,989.27
2022-08-26T01:26:09.468Z,989.26
2022-08-26T01:27:10.465Z,989.25
2022-08-26T01:28:09.432Z,989.29
2022-08-26T01:29:09.421Z,989.33
2022-08-26T01:30:09.450Z,989.30
2022-08-26T01:31:09.436Z,989.35
2022-08-26T01:32:09.382Z,989.33
2022-08-26T01:33:09.420Z,989.31
2022-08-26T01:34:09.358Z,989.33
2022-08-26T01:35:09.398Z,989.32
2022-08-26T01:36:09.330Z,989.30
2022-08-26T01:37:15.503Z,989.36
2022-08-26T01:38:10.309Z,989.33
2022-08-26T01:39:09.292Z,989.35
2022-08-26T01:40:09.417Z,989.39
2022-08-26T01:41:16.171Z,989.38
2022-08-26T01:42:10.471Z,989.34
2022-08-26T01:43:09.437Z,989.35
2022-08-26T01:44:09.814Z,989.37
2022-08-26T01:45:09.231Z,989.33
2022-08-26T01:46:09.242Z,989.36
2022-08-26T01:47:09.213Z,989.34
2022-08-26T01:48:09.182Z,989.34
2022-08-26T01:49:09.162Z,989.38
2022-08-26T01:50:09.171Z,989.36
2022-08-26T01:51:09.132Z,989.38
2022-08-26T01:52:09.113Z,989.40
2022-08-26T01:53:09.508Z,989.37
2022-08-26T01:54:12.084Z,989.36
2022-08-26T01:55:09.102Z,989.39
2022-08-26T01:56:09.063Z,989.37
2022-08-26T01:57:09.053Z,989.39
2022-08-26T01:58:09.033Z,989.35
2022-08-26T01:59:09.453Z,989.36
2022-08-26T02:00:09.033Z,989.33
2022-08-26T02:01:09.759Z,989.37
2022-08-26T02:02:09.018Z,989.37
2022-08-26T02:03:08.982Z,989.36
2022-08-26T02:04:09.027Z,989.35
2022-08-26T02:05:08.983Z,989.37
2022-08-26T02:06:09.317Z,989.35
2022-08-26T02:07:08.924Z,989.34
2022-08-26T02:08:08.904Z,989.29
2022-08-26T02:09:08.903Z,989.32
2022-08-26T02:10:09.303Z,989.34
2022-08-26T02:11:08.864Z,989.34
2022-08-26T02:12:08.854Z,989.32
2022-08-26T02:13:08.916Z,989.32
2022-08-26T02:14:08.833Z,989.37
2022-08-26T02:15:08.843Z,989.34
2022-08-26T02:16:08.856Z,989.37
2022-08-26T02:17:08.788Z,989.39
2022-08-26T02:18:08.775Z,989.43
2022-08-26T02:19:09.766Z,989.43
2022-08-26T02:20:10.715Z,989.46
2022-08-26T02:21:08.744Z,989.43
2022-08-26T02:22:08.724Z,989.40
2022-08-26T02:23:08.808Z,989.39
2022-08-26T02:24:08.697Z,989.40
2022-08-26T02:25:08.716Z,989.39
2022-08-26T02:26:08.664Z,989.40
2022-08-26T02:27:08.662Z,989.40
2022-08-26T02:28:08.635Z,989.37
2022-08-26T02:29:08.624Z,989.37
2022-08-26T02:30:08.646Z,989.38
2022-08-26T02:31:08.625Z,989.45
2022-08-26T02:32:08.586Z,989.43
2022-08-26T02:33:08.842Z,989.39
2022-08-26T02:34:08.564Z,989.37
2022-08-26T02:35:08.574Z,989.39
2022-08-26T02:36:08.536Z,989.38
2022-08-26T02:37:08.576Z,989.39
2022-08-26T02:38:09.823Z,989.34
2022-08-26T02:39:08.496Z,989.38
2022-08-26T02:40:08.558Z,989.35
2022-08-26T02:41:09.120Z,989.33
2022-08-26T02:42:08.456Z,989.36
2022-08-26T02:43:08.767Z,989.37
2022-08-26T02:44:08.425Z,989.32
2022-08-26T02:45:08.452Z,989.36
2022-08-26T02:46:08.406Z,989.32
2022-08-26T02:47:08.448Z,989.33
2022-08-26T02:48:08.375Z,989.33
2022-08-26T02:49:08.365Z,989.29
2022-08-26T02:50:08.375Z,989.32
2022-08-26T02:51:08.345Z,989.31
2022-08-26T02:52:08.324Z,989.28
2022-08-26T02:53:08.467Z,989.31
2022-08-26T02:54:08.304Z,989.32
2022-08-26T02:55:08.326Z,989.31
2022-08-26T02:56:08.275Z,989.29
2022-08-26T02:57:08.267Z,989.30
2022-08-26T02:58:08.254Z,989.29
2022-08-26T02:59:08.243Z,989.30
2022-08-26T03:00:08.246Z,989.27
2022-08-26T03:01:08.259Z,989.25
2022-08-26T03:02:08.267Z,989.25
2022-08-26T03:03:08.335Z,989.24
2022-08-26T03:04:08.195Z,989.24
2022-08-26T03:05:08.197Z,989.20
2022-08-26T03:06:08.144Z,989.21
2022-08-26T03:07:08.127Z,989.20
2022-08-26T03:08:08.127Z,989.15
2022-08-26T03:09:08.107Z,989.18
2022-08-26T03:10:08.734Z,989.15
2022-08-26T03:11:08.086Z,989.17
2022-08-26T03:12:08.277Z,989.14
2022-08-26T03:13:08.216Z,989.15
2022-08-26T03:14:08.037Z,989.10
2022-08-26T03:15:16.006Z,989.10
2022-08-26T03:16:09.060Z,989.11
2022-08-26T03:17:08.004Z,989.08
2022-08-26T03:18:07.985Z,989.08
2022-08-26T03:19:07.977Z,989.04
2022-08-26T03:20:07.976Z,989.06
2022-08-26T03:21:07.946Z,989.02
2022-08-26T03:22:07.927Z,989.01
2022-08-26T03:23:08.120Z,989.10
2022-08-26T03:24:07.898Z,989.08
2022-08-26T03:25:07.927Z,989.07
2022-08-26T03:26:07.909Z,989.05
2022-08-26T03:27:07.877Z,989.02
2022-08-26T03:28:07.861Z,989.02
2022-08-26T03:29:07.845Z,989.02
2022-08-26T03:30:07.855Z,988.99
2022-08-26T03:31:07.827Z,989.02
2022-08-26T03:32:07.797Z,989.04
2022-08-26T03:33:08.051Z,989.03
2022-08-26T03:34:07.825Z,989.05
2022-08-26T03:35:07.787Z,989.05
2022-08-26T03:36:07.738Z,989.03
2022-08-26T03:37:07.741Z,988.98
2022-08-26T03:38:07.719Z,989.01
2022-08-26T03:39:07.707Z,989.00
2022-08-26T03:40:07.782Z,988.94
2022-08-26T03:41:07.685Z,989.01
2022-08-26T03:42:07.658Z,989.00
2022-08-26T03:43:09.597Z,989.02
2022-08-26T03:44:07.638Z,989.02
2022-08-26T03:45:07.660Z,989.01
2022-08-26T03:46:07.576Z,988.96
2022-08-26T03:47:07.609Z,988.98
2022-08-26T03:48:07.606Z,988.99
2022-08-26T03:49:07.575Z,988.96
2022-08-26T03:50:07.588Z,988.96
2022-08-26T03:51:07.548Z,989.00
2022-08-26T03:52:07.489Z,988.94
2022-08-26T03:53:12.649Z,988.99
2022-08-26T03:54:08.495Z,988.99
2022-08-26T03:55:07.526Z,988.92
2022-08-26T03:56:07.478Z,988.93
2022-08-26T03:57:07.468Z,988.93
2022-08-26T03:58:07.448Z,988.94
2022-08-26T03:59:07.488Z,988.94
2022-08-26T04:00:07.412Z,988.92
2022-08-26T04:01:07.423Z,988.94
2022-08-26T04:02:11.375Z,988.92
2022-08-26T04:03:09.714Z,988.90
2022-08-26T04:04:07.333Z,988.93
2022-08-26T04:05:07.338Z,988.97
2022-08-26T04:06:07.324Z,988.96
2022-08-26T04:07:07.279Z,988.92
2022-08-26T04:08:07.270Z,988.88
2022-08-26T04:09:07.260Z,988.92
2022-08-26T04:10:07.239Z,988.94
2022-08-26T04:11:07.629Z,988.92
2022-08-26T04:12:07.219Z,988.93
2022-08-26T04:13:07.441Z,988.91
2022-08-26T04:14:07.229Z,988.90
2022-08-26T04:15:07.361Z,988.94
2022-08-26T04:16:07.403Z,988.93
2022-08-26T04:17:07.360Z,988.90
2022-08-26T04:18:07.309Z,988.89
2022-08-26T04:19:07.463Z,988.90
2022-08-26T04:20:07.720Z,988.89
2022-08-26T04:21:07.832Z,988.90
2022-08-26T04:22:07.240Z,988.87
2022-08-26T04:23:07.249Z,988.86
2022-08-26T04:24:10.283Z,988.85
2022-08-26T04:25:08.042Z,988.83
2022-08-26T04:26:07.250Z,988.83
2022-08-26T04:27:07.110Z,988.82
2022-08-26T04:28:07.025Z,988.82
2022-08-26T04:29:06.990Z,988.85
2022-08-26T04:30:06.981Z,988.81
2022-08-26T04:31:07.019Z,988.85
2022-08-26T04:32:07.001Z,988.89
2022-08-26T04:33:12.746Z,988.84
2022-08-26T04:34:07.923Z,988.87
2022-08-26T04:35:06.916Z,988.82
2022-08-26T04:36:06.936Z,988.84
2022-08-26T04:37:07.868Z,988.88
2022-08-26T04:38:06.880Z,988.87
2022-08-26T04:39:06.861Z,988.88
2022-08-26T04:40:06.869Z,988.85
2022-08-26T04:41:06.863Z,988.85
2022-08-26T04:42:07.951Z,988.84
2022-08-26T04:43:07.031Z,988.86
2022-08-26T04:44:06.791Z,988.86
2022-08-26T04:45:10.414Z,988.83
2022-08-26T04:46:06.872Z,988.89
2022-08-26T04:47:06.751Z,988.87
2022-08-26T04:48:06.738Z,988.85
2022-08-26T04:49:06.728Z,988.86
2022-08-26T04:50:06.723Z,988.89
2022-08-26T04:51:06.765Z,988.91
2022-08-26T04:52:06.768Z,988.85
2022-08-26T04:53:07.190Z,988.90
2022-08-26T04:54:06.660Z,988.87
2022-08-26T04:55:08.409Z,988.87
2022-08-26T04:56:06.661Z,988.89
2022-08-26T04:57:06.636Z,988.90
2022-08-26T04:58:06.603Z,988.93
2022-08-26T04:59:07.242Z,988.94
2022-08-26T05:00:06.581Z,988.93
2022-08-26T05:01:06.594Z,988.94
2022-08-26T05:02:06.612Z,988.97
2022-08-26T05:03:06.680Z,988.99
2022-08-26T05:04:08.085Z,988.99
2022-08-26T05:05:06.520Z,988.91
2022-08-26T05:06:06.527Z,988.90
2022-08-26T05:07:06.503Z,988.90
2022-08-26T05:08:06.473Z,988.88
2022-08-26T05:09:06.558Z,988.89
2022-08-26T05:10:08.764Z,988.90
2022-08-26T05:11:06.473Z,988.92
2022-08-26T05:12:06.441Z,988.93
2022-08-26T05:13:11.211Z,988.95
2022-08-26T05:14:07.420Z,988.97
2022-08-26T05:15:06.424Z,988.99
2022-08-26T05:16:06.477Z,988.97
2022-08-26T05:17:06.391Z,988.95
2022-08-26T05:18:06.362Z,988.97
2022-08-26T05:19:06.364Z,989.02
2022-08-26T05:20:06.342Z,989.02
2022-08-26T05:21:06.333Z,988.99
2022-08-26T05:22:06.284Z,988.95
2022-08-26T05:23:06.296Z,988.96
2022-08-26T05:24:06.283Z,989.00
2022-08-26T05:25:06.251Z,989.00
2022-08-26T05:26:06.276Z,988.98
2022-08-26T05:27:07.498Z,989.01
2022-08-26T05:28:07.204Z,989.01
2022-08-26T05:29:06.206Z,989.00
2022-08-26T05:30:06.174Z,988.93
2022-08-26T05:31:06.243Z,988.93
2022-08-26T05:32:06.234Z,988.91
2022-08-26T05:33:06.271Z,988.90
2022-08-26T05:34:15.764Z,988.94
2022-08-26T05:35:08.961Z,988.95
2022-08-26T05:36:06.965Z,988.96
2022-08-26T05:37:06.276Z,988.97
2022-08-26T05:38:10.385Z,988.96
2022-08-26T05:39:07.074Z,988.95
2022-08-26T05:40:06.071Z,988.95
2022-08-26T05:41:08.844Z,988.91
2022-08-26T05:42:06.082Z,988.95
2022-08-26T05:43:06.143Z,988.95
2022-08-26T05:44:06.219Z,988.99
2022-08-26T05:45:06.187Z,988.91
2022-08-26T05:46:07.683Z,988.98
2022-08-26T05:47:05.996Z,988.95
2022-08-26T05:48:06.199Z,988.92
2022-08-26T05:49:05.945Z,988.91
2022-08-26T05:50:12.144Z,988.92
2022-08-26T05:51:06.036Z,988.86
2022-08-26T05:52:05.916Z,988.90
2022-08-26T05:53:05.888Z,988.90
2022-08-26T05:54:05.876Z,988.92
2022-08-26T05:55:10.055Z,988.94
2022-08-26T05:56:05.888Z,988.93
2022-08-26T05:57:05.843Z,988.97
2022-08-26T05:58:05.835Z,988.91
2022-08-26T05:59:05.814Z,988.90
2022-08-26T06:00:06.783Z,988.89
2022-08-26T06:01:05.837Z,988.89
2022-08-26T06:02:05.827Z,988.89
2022-08-26T06:03:05.818Z,988.88
2022-08-26T06:04:05.739Z,988.92
2022-08-26T06:05:05.717Z,988.95
2022-08-26T06:06:05.737Z,988.90
2022-08-26T06:07:05.704Z,988.89
2022-08-26T06:08:05.687Z,988.88
2022-08-26T06:09:05.667Z,988.88
2022-08-26T06:10:30.985Z,988.96
2022-08-26T06:11:06.669Z,988.90
2022-08-26T06:12:05.627Z,988.92
2022-08-26T06:13:11.526Z,988.87
2022-08-26T06:14:07.127Z,988.91
2022-08-26T06:15:05.615Z,988.88
2022-08-26T06:16:05.672Z,988.85
2022-08-26T06:17:05.698Z,988.86
2022-08-26T06:18:05.744Z,988.92
2022-08-26T06:19:10.410Z,988.89
2022-08-26T06:20:06.712Z,988.94
2022-08-26T06:21:05.688Z,988.96
2022-08-26T06:22:05.519Z,988.91
2022-08-26T06:23:05.567Z,988.88
2022-08-26T06:24:05.488Z,988.85
2022-08-26T06:25:05.459Z,988.86
2022-08-26T06:26:05.492Z,988.87
2022-08-26T06:27:05.437Z,988.94
2022-08-26T06:28:05.529Z,988.93
2022-08-26T06:29:05.613Z,988.88
2022-08-26T06:30:11.079Z,988.89
2022-08-26T06:31:06.202Z,988.86
2022-08-26T06:32:05.454Z,988.88
2022-08-26T06:33:05.423Z,988.91
2022-08-26T06:34:10.399Z,988.95
2022-08-26T06:35:06.347Z,988.94
2022-08-26T06:36:07.230Z,988.90
2022-08-26T06:37:05.302Z,988.91
2022-08-26T06:38:05.291Z,988.97
2022-08-26T06:39:05.280Z,988.94
2022-08-26T06:40:05.309Z,988.92
2022-08-26T06:41:05.287Z,988.88
2022-08-26T06:42:06.287Z,988.92
2022-08-26T06:43:05.266Z,988.89
2022-08-26T06:44:05.292Z,988.93
2022-08-26T06:45:05.200Z,988.93
2022-08-26T06:46:05.275Z,988.95
2022-08-26T06:47:05.171Z,988.87
2022-08-26T06:48:05.162Z,988.91
2022-08-26T06:49:05.151Z,988.86
2022-08-26T06:50:05.142Z,988.86
2022-08-26T06:51:05.161Z,988.85
2022-08-26T06:52:05.119Z,988.89
2022-08-26T06:53:05.155Z,988.93
2022-08-26T06:54:05.103Z,988.97
2022-08-26T06:55:05.072Z,988.94
2022-08-26T06:56:05.092Z,988.96
2022-08-26T06:57:05.080Z,988.94
2022-08-26T06:58:05.063Z,988.92
2022-08-26T06:59:05.053Z,988.99
2022-08-26T07:00:05.013Z,988.99
2022-08-26T07:01:09.533Z,989.00
2022-08-26T07:02:06.117Z,988.99
2022-08-26T07:03:05.053Z,989.00
2022-08-26T07:04:05.177Z,988.97
2022-08-26T07:05:05.974Z,989.00
2022-08-26T07:06:04.946Z,989.02
2022-08-26T07:07:04.991Z,989.01
2022-08-26T07:08:04.924Z,989.03
2022-08-26T07:09:05.034Z,989.00
2022-08-26T07:10:04.885Z,989.00
2022-08-26T07:11:04.866Z,989.03
2022-08-26T07:12:04.887Z,988.97
2022-08-26T07:13:06.005Z,988.99
2022-08-26T07:14:04.855Z,989.02
2022-08-26T07:15:04.835Z,989.02
2022-08-26T07:16:04.863Z,989.05
2022-08-26T07:17:04.817Z,989.02
2022-08-26T07:18:04.896Z,989.02
2022-08-26T07:19:10.777Z,989.00
2022-08-26T07:20:05.756Z,989.00
2022-08-26T07:21:04.749Z,988.97
2022-08-26T07:22:04.760Z,989.00
2022-08-26T07:23:04.889Z,989.05
2022-08-26T07:24:05.706Z,989.01
2022-08-26T07:25:04.688Z,989.04
2022-08-26T07:26:04.787Z,989.08
2022-08-26T07:27:05.414Z,989.06
2022-08-26T07:28:04.663Z,989.01
2022-08-26T07:29:04.648Z,989.07
2022-08-26T07:30:04.630Z,989.07
2022-08-26T07:31:04.646Z,989.10
2022-08-26T07:32:04.660Z,989.11
2022-08-26T07:33:04.690Z,989.12
2022-08-26T07:34:04.587Z,989.10
2022-08-26T07:35:04.579Z,989.12
2022-08-26T07:36:04.549Z,989.10
2022-08-26T07:37:04.559Z,989.11
2022-08-26T07:38:04.528Z,989.13
2022-08-26T07:39:04.509Z,989.19
2022-08-26T07:40:04.548Z,989.14
2022-08-26T07:41:04.479Z,989.16
2022-08-26T07:42:07.530Z,989.13
2022-08-26T07:43:04.505Z,989.21
2022-08-26T07:44:04.450Z,989.24
2022-08-26T07:45:04.465Z,989.22
2022-08-26T07:46:04.416Z,989.22
2022-08-26T07:47:10.252Z,989.25
2022-08-26T07:48:05.390Z,989.29
2022-08-26T07:49:04.471Z,989.24
2022-08-26T07:50:04.371Z,989.28
2022-08-26T07:51:04.351Z,989.27
2022-08-26T07:52:04.361Z,989.30
2022-08-26T07:53:04.467Z,989.30
2022-08-26T07:54:04.312Z,989.27
2022-08-26T07:55:04.304Z,989.27
2022-08-26T07:56:04.290Z,989.27
2022-08-26T07:57:05.121Z,989.27
2022-08-26T07:58:05.273Z,989.28
2022-08-26T07:59:04.252Z,989.30
2022-08-26T08:00:05.360Z,989.32
2022-08-26T08:01:04.260Z,989.28
2022-08-26T08:02:04.247Z,989.28
2022-08-26T08:03:04.204Z,989.27
2022-08-26T08:04:04.197Z,989.33
2022-08-26T08:05:04.225Z,989.23
2022-08-26T08:06:04.244Z,989.28
2022-08-26T08:07:04.165Z,989.27
2022-08-26T08:08:26.352Z,989.25
2022-08-26T08:09:05.117Z,989.27
2022-08-26T08:10:09.202Z,989.27
2022-08-26T08:11:05.098Z,989.26
2022-08-26T08:12:04.146Z,989.28
2022-08-26T08:13:04.066Z,989.27
2022-08-26T08:14:04.215Z,989.26
2022-08-26T08:15:04.103Z,989.29
2022-08-26T08:16:04.207Z,989.30
2022-08-26T08:17:04.190Z,989.34
2022-08-26T08:18:04.368Z,989.28
2022-08-26T08:19:03.986Z,989.28
2022-08-26T08:20:03.977Z,989.27
2022-08-26T08:21:21.073Z,989.29
2022-08-26T08:22:17.887Z,989.28
2022-08-26T08:23:05.035Z,989.24
2022-08-26T08:24:04.103Z,989.23
2022-08-26T08:25:06.224Z,989.25
2022-08-26T08:26:03.899Z,989.28
2022-08-26T08:27:03.920Z,989.30
2022-08-26T08:28:03.871Z,989.27
2022-08-26T08:29:03.859Z,989.23
2022-08-26T08:30:03.852Z,989.26
2022-08-26T08:31:03.877Z,989.29
2022-08-26T08:32:06.806Z,989.32
2022-08-26T08:33:04.803Z,989.32
2022-08-26T08:34:03.790Z,989.35
2022-08-26T08:35:10.872Z,989.33
2022-08-26T08:36:04.760Z,989.34
2022-08-26T08:37:06.148Z,989.32
2022-08-26T08:38:04.651Z,989.29
2022-08-26T08:39:03.772Z,989.33
2022-08-26T08:40:03.856Z,989.34
2022-08-26T08:41:03.703Z,989.36
2022-08-26T08:42:03.723Z,989.31
2022-08-26T08:43:03.806Z,989.34
2022-08-26T08:44:03.661Z,989.29
2022-08-26T08:45:03.643Z,989.28
2022-08-26T08:46:03.898Z,989.30
2022-08-26T08:47:03.643Z,989.31
2022-08-26T08:48:03.614Z,989.30
2022-08-26T08:49:03.591Z,989.29
2022-08-26T08:50:03.594Z,989.33
2022-08-26T08:51:04.355Z,989.32
2022-08-26T08:52:04.248Z,989.35
2022-08-26T08:53:03.544Z,989.29
2022-08-26T08:54:04.525Z,989.31
2022-08-26T08:55:03.626Z,989.27
2022-08-26T08:56:03.506Z,989.24
2022-08-26T08:57:03.527Z,989.27
2022-08-26T08:58:03.485Z,989.26
2022-08-26T08:59:03.469Z,989.27
2022-08-26T09:00:03.465Z,989.29
2022-08-26T09:01:03.454Z,989.28
2022-08-26T09:02:03.512Z,989.27
2022-08-26T09:03:03.415Z,989.29
2022-08-26T09:04:03.408Z,989.29
2022-08-26T09:05:03.388Z,989.31
2022-08-26T09:06:03.378Z,989.28
2022-08-26T09:07:03.399Z,989.26
2022-08-26T09:08:03.402Z,989.27
2022-08-26T09:09:03.349Z,989.27
2022-08-26T09:10:03.349Z,989.27
2022-08-26T09:11:03.421Z,989.26
2022-08-26T09:12:03.329Z,989.29
2022-08-26T09:13:03.290Z,989.27
2022-08-26T09:14:03.483Z,989.29
2022-08-26T09:15:03.400Z,989.33
2022-08-26T09:16:04.003Z,989.29
2022-08-26T09:17:03.399Z,989.28
2022-08-26T09:18:04.525Z,989.22
2022-08-26T09:19:03.262Z,989.29
2022-08-26T09:20:03.358Z,989.23
2022-08-26T09:21:03.182Z,989.24
2022-08-26T09:22:08.812Z,989.23
2022-08-26T09:23:04.163Z,989.28
2022-08-26T09:24:03.153Z,989.25
2022-08-26T09:25:03.144Z,989.26
2022-08-26T09:26:03.135Z,989.26
2022-08-26T09:27:03.144Z,989.27
2022-08-26T09:28:03.688Z,989.26
2022-08-26T09:29:03.094Z,989.23
2022-08-26T09:30:03.076Z,989.21
2022-08-26T09:31:04.092Z,989.27
2022-08-26T09:32:03.093Z,989.24
2022-08-26T09:33:03.136Z,989.25
2022-08-26T09:34:04.314Z,989.28
2022-08-26T09:35:03.016Z,989.23
2022-08-26T09:36:03.147Z,989.22
2022-08-26T09:37:04.760Z,989.21
2022-08-26T09:38:02.978Z,989.21
2022-08-26T09:39:02.957Z,989.23
2022-08-26T09:40:03.258Z,989.21
2022-08-26T09:41:03.007Z,989.23
2022-08-26T09:42:02.959Z,989.21
2022-08-26T09:43:02.908Z,989.20
2022-08-26T09:44:02.900Z,989.24
2022-08-26T09:45:02.880Z,989.26
2022-08-26T09:46:03.663Z,989.23
2022-08-26T09:47:03.678Z,989.19
2022-08-26T09:48:03.200Z,989.20
2022-08-26T09:49:02.830Z,989.22
2022-08-26T09:50:03.126Z,989.20
2022-08-26T09:51:03.866Z,989.20
2022-08-26T09:52:02.921Z,989.18
2022-08-26T09:53:02.947Z,989.22
2022-08-26T09:54:03.781Z,989.16
2022-08-26T09:55:03.419Z,989.13
2022-08-26T09:56:02.751Z,989.14
2022-08-26T09:57:02.792Z,989.14
2022-08-26T09:58:04.174Z,989.12
2022-08-26T09:59:03.836Z,989.15
2022-08-26T10:00:02.695Z,989.15
2022-08-26T10:01:02.738Z,989.13
2022-08-26T10:02:02.855Z,989.10
2022-08-26T10:03:03.706Z,989.08
2022-08-26T10:04:03.348Z,989.12
2022-08-26T10:05:09.514Z,989.11
2022-08-26T10:06:03.623Z,989.06
2022-08-26T10:07:02.913Z,989.01
2022-08-26T10:08:02.731Z,989.01
2022-08-26T10:09:08.323Z,989.00
2022-08-26T10:10:03.579Z,989.02
2022-08-26T10:11:02.694Z,988.99
2022-08-26T10:12:03.053Z,988.97
2022-08-26T10:13:02.690Z,988.96
2022-08-26T10:14:02.526Z,988.91
2022-08-26T10:15:02.558Z,988.87
2022-08-26T10:16:02.608Z,988.90
2022-08-26T10:17:02.603Z,988.82
2022-08-26T10:18:02.475Z,988.84
2022-08-26T10:19:02.723Z,988.82
2022-08-26T10:20:02.558Z,988.83
2022-08-26T10:21:02.440Z,988.83
2022-08-26T10:22:02.659Z,988.81
2022-08-26T10:23:02.477Z,988.80
2022-08-26T10:24:02.391Z,988.79
2022-08-26T10:25:02.718Z,988.76
2022-08-26T10:26:02.376Z,988.72
2022-08-26T10:27:02.380Z,988.71
2022-08-26T10:28:02.345Z,988.68
2022-08-26T10:29:02.344Z,988.71
2022-08-26T10:30:02.320Z,988.72
2022-08-26T10:31:02.322Z,988.67
2022-08-26T10:32:02.740Z,988.68
2022-08-26T10:33:02.330Z,988.64
2022-08-26T10:34:02.444Z,988.63
2022-08-26T10:35:02.502Z,988.65
2022-08-26T10:36:02.243Z,988.63
2022-08-26T10:37:14.430Z,988.64
2022-08-26T10:38:03.353Z,988.62
2022-08-26T10:39:02.215Z,988.58
2022-08-26T10:40:02.443Z,988.59
2022-08-26T10:41:02.197Z,988.60
2022-08-26T10:42:02.205Z,988.64
2022-08-26T10:43:03.480Z,988.63
2022-08-26T10:44:03.137Z,988.63
2022-08-26T10:45:02.132Z,988.56
2022-08-26T10:46:02.267Z,988.58
2022-08-26T10:47:02.139Z,988.61
2022-08-26T10:48:02.135Z,988.59
2022-08-26T10:49:03.269Z,988.58
2022-08-26T10:50:03.171Z,988.60
2022-08-26T10:51:02.247Z,988.60
2022-08-26T10:52:02.338Z,988.57
2022-08-26T10:53:03.108Z,988.59
2022-08-26T10:54:02.109Z,988.63
2022-08-26T10:55:02.010Z,988.60
2022-08-26T10:56:02.079Z,988.53
2022-08-26T10:57:02.010Z,988.59
2022-08-26T10:58:08.099Z,988.63
2022-08-26T10:59:02.949Z,988.62
2022-08-26T11:00:02.089Z,988.62
2022-08-26T11:01:01.984Z,988.63
2022-08-26T11:02:03.742Z,988.68
2022-08-26T11:03:02.027Z,988.62
2022-08-26T11:04:01.941Z,988.70
2022-08-26T11:05:01.882Z,988.68
2022-08-26T11:06:01.870Z,988.71
2022-08-26T11:07:01.900Z,988.72
2022-08-26T11:08:01.886Z,988.66
2022-08-26T11:09:01.843Z,988.64
2022-08-26T11:10:01.812Z,988.69
2022-08-26T11:11:01.811Z,988.68
2022-08-26T11:12:06.780Z,988.67
2022-08-26T11:13:02.774Z,988.68
2022-08-26T11:14:01.766Z,988.71
2022-08-26T11:15:01.776Z,988.65
2022-08-26T11:16:01.744Z,988.65
2022-08-26T11:17:01.842Z,988.65
2022-08-26T11:18:01.856Z,988.64
2022-08-26T11:19:01.749Z,988.60
2022-08-26T11:20:07.415Z,988.64
2022-08-26T11:21:02.815Z,988.62
2022-08-26T11:22:01.897Z,988.56
2022-08-26T11:23:01.757Z,988.59
2022-08-26T11:24:01.715Z,988.52
2022-08-26T11:25:01.631Z,988.56
2022-08-26T11:26:02.338Z,988.56
2022-08-26T11:27:01.636Z,988.63
2022-08-26T11:28:01.659Z,988.59
2022-08-26T11:29:03.173Z,988.57
2022-08-26T11:30:01.569Z,988.53
2022-08-26T11:31:01.580Z,988.50
2022-08-26T11:32:01.618Z,988.46
2022-08-26T11:33:01.534Z,988.49
2022-08-26T11:34:01.511Z,988.50
2022-08-26T11:35:01.510Z,988.44
2022-08-26T11:36:01.620Z,988.48
2022-08-26T11:37:02.511Z,988.47
2022-08-26T11:38:01.463Z,988.45
2022-08-26T11:39:02.706Z,988.45
2022-08-26T11:40:01.658Z,988.41
2022-08-26T11:41:01.636Z,988.41
2022-08-26T11:42:01.513Z,988.36
2022-08-26T11:43:01.411Z,988.41
2022-08-26T11:44:01.663Z,988.41
2022-08-26T11:45:05.318Z,988.38
2022-08-26T11:46:01.432Z,988.38
2022-08-26T11:47:01.463Z,988.42
2022-08-26T11:48:01.375Z,988.39
2022-08-26T11:49:01.561Z,988.38
2022-08-26T11:50:01.315Z,988.37
2022-08-26T11:51:01.362Z,988.36
2022-08-26T11:52:01.296Z,988.29
2022-08-26T11:53:01.342Z,988.29
2022-08-26T11:54:01.274Z,988.28
2022-08-26T11:55:01.266Z,988.28
2022-08-26T11:56:01.246Z,988.19
2022-08-26T11:57:03.763Z,988.20
2022-08-26T11:58:02.330Z,988.20
2022-08-26T11:59:01.208Z,988.20
2022-08-26T12:00:01.187Z,988.22
2022-08-26T12:01:01.179Z,988.20
2022-08-26T12:02:01.178Z,988.15
2022-08-26T12:03:01.201Z,988.15
2022-08-26T12:04:01.371Z,988.16
2022-08-26T12:05:01.229Z,988.17
2022-08-26T12:06:01.180Z,988.22
2022-08-26T12:07:01.110Z,988.14
2022-08-26T12:08:01.206Z,988.15
2022-08-26T12:09:01.089Z,988.13
2022-08-26T12:10:02.094Z,988.11
2022-08-26T12:11:01.062Z,988.09
2022-08-26T12:12:01.043Z,988.06
2022-08-26T12:13:01.062Z,988.07
2022-08-26T12:14:01.020Z,988.09
2022-08-26T12:15:01.033Z,988.08
2022-08-26T12:16:01.192Z,988.09
2022-08-26T12:17:00.983Z,988.07
2022-08-26T12:18:00.993Z,988.11
2022-08-26T12:19:00.964Z,988.08
2022-08-26T12:20:00.945Z,988.03
2022-08-26T12:21:00.937Z,988.00
2022-08-26T12:22:00.924Z,987.97
2022-08-26T12:23:00.964Z,988.00
2022-08-26T12:24:00.895Z,987.99
2022-08-26T12:25:01.615Z,988.00
2022-08-26T12:26:00.882Z,987.91
2022-08-26T12:27:00.956Z,987.84
2022-08-26T12:28:01.358Z,987.90